A- A+ FrançaisEnglishEspañol中国

Services sur Internet Soldes sur Internet Des idées de cadeaux Météo Météo aéro

La météo à : Autours de vous Tarbes-Lourdes-PyrénéesPontoise-Cormeilles-En-VexinChateauroux-Deols Paris-Orly

manche à air

La météo aéronautique pour les pilotes, la préparation du vol avec les METAR (METeorological Aerodrome Report, message d'observation des conditions météorologiques pour l'aviation) et Les TAF (Terminal Aerodrome Forecast : message de prévision à court terme des conditions météorologiques pour l'aviation). Et les autres ressources comme les VAC (Visual Approch Chart) et les NOTAM (Notice To Airman) pour préprer les vols.

Aéroport Key Lake (Canada) / OACI CYKJ/ IATA YKJ

L'altitude de l'aéroport Key Lake est de 512 m = 1680 ft. Il est situé à proximité de Key Lake (Canada). La météo générale à 5 jours est disponible pour Southend Reindeer situé à 178.8 km.

METAR de l'aéroport Key Lake - CYKJ

CYKJ 150200Z AUTO 01007KT 9SM OVC016 00/M01 A3008 RMK SLP215

Décodage du METAR de l'aéroport Key Lake (CA)

METAR émis par CYKJ le mardi 15 octobre 2019 à 02:00 heure TU. C'est un METAR généré automatiquement, il y a 19 minutes.

La visibilité est de 14.5 km = 9 sm.

La température est de 0°C = 32 °F et le point rosée est de -1°C = 30 °F . Ce qui correspond à 93% d'humidité relative.

Le QNH est de 1019 hPa = 30.09 inHg

Vent de 7 kt = 13 km/h, orienté à 10°.

Nuages : Couverture nuageuse soudée à 1600 ft = 490 mètres.

RMK SLP215

TAF de l'aéroport Key Lake - CYKJ

CYKJ 291238Z 2913/2924 VRB03KT P6SM SCT006 BKN040 TEMPO 2913/2916 BKN006 OVC060 PROB30 2913/2916 1/2SM FZFG VV002 FM291800 34008KT P6SM BKN040 RMK FCST BASED ON AUTO OBS. NXT FCST BY 291900Z

CYKJ 291238Z 2913/2924 VRB03KT P6SM nuages épars à 006 couverture nuageuse fragmentée à 040 temporairement 2913/2916 couverture nuageuse fragmentée à 006 couverture nuageuse soudée à 060 probabilité de 30% d'avoir 2913/2916 1/2SM FZFG VV002 FM291800 34008KT P6SM couverture nuageuse fragmentée à 040 remarques trombe ST BASED ON AUTO OBS. NXT trombe ST BY 291900Z

Aéroport à proximité de Key Lake

Météo générale à 5 jours à Southend Reindeer (178.8 km)Aéroport Points North Landing (146 km)Aéroport Collins Bay (159 km)Aéroport Wollaston Lake (173 km)Aéroport Pinehouse Lake (201 km)Aéroport Stony Rapids (222 km)Aéroport Buffalo Narrows (233 km)

Vue aérienne de l'aéroport Key Lake

NOTAM de l'aéroport Key Lake

Les NOTAM sont fournis sans aucune garantie de leur actualité. Le pilote est le seul responsable de la vérification de sa validité avant de l'utiliser opérationnellement pour préparer un vol ou l'utiliser lors de sa navigation.

NOTAM Air/ground facility (du jeudi 10 octobre 2019 à 09:01 au samedi 26 octobre 2019 à 23:59)

L0125/19 NOTAMN
Q) CZEG/QCAAS/IV/B/AE/000/999/5715N10537W070
A) CYKJ B) 1910100901 C) 1910252359
E) WINNIPEG RDO DIAL-UP REMOTE COMM OUTLET (DRCO) 123.375MHZ AND
126.7MHZ U/S
CREATED: 10 Oct 2019 01:33:00
SOURCE: CYHQYNYX

Sources des données